Time;durP1;ratioP1;P1;durP2;ratioP2;P2;SDS_P1;SDS_P2;PMS_P1;PMS_P2;Temp;Humidity;BMP_temperature;BMP_pressure;BME280_temperature;BME280_humidity;BME280_pressure;Samples;Min_cycle;Max_cycle;Signal;HPM_P1;HPM_P2
2023/12/04 00:00:18;;;;;;;2.60;0.90;;;;;;;1.58;92.42;101170.47;4988926;28;20023;-73
2023/12/04 00:02:43;;;;;;;6.07;3.72;;;;;;;1.79;92.04;101172.59;4969587;28;20493;-73
2023/12/04 00:05:08;;;;;;;3.50;2.50;;;;;;;1.87;90.92;101173.84;4988887;28;20053;-74
2023/12/04 00:07:34;;;;;;;6.05;3.00;;;;;;;1.75;91.25;101176.09;4971405;28;20049;-73
2023/12/04 00:10:02;;;;;;;6.05;3.00;;;;;;;1.69;91.66;101166.59;4993203;28;20038;-73
2023/12/04 00:12:27;;;;;;;4.30;2.67;;;;;;;1.71;91.22;101156.50;4993408;28;20479;-73
2023/12/04 00:14:52;;;;;;;5.68;3.92;;;;;;;1.77;91.11;101153.53;4990162;28;20034;-73
2023/12/04 00:17:18;;;;;;;1.88;1.55;;;;;;;1.74;91.00;101159.38;4975151;28;20081;-76
2023/12/04 00:19:44;;;;;;;6.82;3.40;;;;;;;1.77;90.61;101152.72;4958123;28;20511;-73
2023/12/04 00:22:09;;;;;;;7.85;3.20;;;;;;;1.65;91.00;101144.38;4979867;28;20060;-73
2023/12/04 00:24:34;;;;;;;5.50;3.15;;;;;;;1.76;91.19;101151.91;4993166;28;20121;-73
2023/12/04 00:27:02;;;;;;;10.35;3.92;;;;;;;1.78;90.97;101149.78;4994629;28;20036;-73
2023/12/04 00:29:28;;;;;;;5.20;2.05;;;;;;;1.74;90.05;101145.34;4977444;28;20600;-73
2023/12/04 00:31:53;;;;;;;6.40;3.42;;;;;;;1.57;91.28;101148.44;4993592;28;20136;-72
2023/12/04 00:34:19;;;;;;;5.78;3.67;;;;;;;1.55;91.93;101149.78;4992761;28;20125;-74
2023/12/04 00:36:45;;;;;;;2.63;2.05;;;;;;;1.71;90.97;101143.22;4977818;28;20121;-73
2023/12/04 00:39:13;;;;;;;2.28;2.10;;;;;;;1.54;91.40;101145.56;4996036;28;20018;-73
2023/12/04 00:41:38;;;;;;;3.47;2.63;;;;;;;1.63;91.23;101143.84;4974228;28;20122;-73
2023/12/04 00:44:04;;;;;;;3.25;3.05;;;;;;;1.62;91.76;101136.97;4991012;28;20110;-74
2023/12/04 00:46:29;;;;;;;2.20;1.92;;;;;;;1.53;91.58;101142.09;4987972;28;20493;-73
2023/12/04 00:48:55;;;;;;;8.50;3.80;;;;;;;1.47;91.72;101140.56;4992409;28;20525;-74
2023/12/04 00:51:20;;;;;;;8.07;3.03;;;;;;;1.63;91.38;101131.38;4993487;28;20125;-74
2023/12/04 00:53:46;;;;;;;5.05;3.78;;;;;;;1.67;91.37;101136.91;4995012;28;20034;-73
2023/12/04 00:56:11;;;;;;;2.42;2.03;;;;;;;1.60;90.28;101139.13;4979266;28;20030;-74
2023/12/04 00:58:36;;;;;;;2.88;1.92;;;;;;;1.76;90.35;101127.28;4976487;28;21291;-72
2023/12/04 01:01:02;;;;;;;5.97;2.95;;;;;;;1.75;90.38;101125.66;4991151;28;20034;-74
2023/12/04 01:03:27;;;;;;;4.43;2.38;;;;;;;1.63;90.62;101128.72;4990114;28;20034;-73
2023/12/04 01:05:53;;;;;;;5.45;2.78;;;;;;;1.61;91.33;101124.78;4975003;28;20042;-74
2023/12/04 01:08:18;;;;;;;6.20;3.78;;;;;;;1.51;90.93;101122.25;4990777;28;20540;-74
2023/12/04 01:10:43;;;;;;;7.95;3.80;;;;;;;1.60;91.67;101118.69;4987843;28;20065;-74
2023/12/04 01:13:09;;;;;;;2.33;1.85;;;;;;;1.70;90.82;101126.50;4992413;28;20066;-74
2023/12/04 01:15:36;;;;;;;5.20;2.83;;;;;;;1.55;90.79;101112.63;4979049;28;20053;-75
2023/12/04 01:18:02;;;;;;;3.15;2.13;;;;;;;1.49;91.49;101114.56;4994769;28;20030;-74
2023/12/04 01:20:28;;;;;;;9.40;3.55;;;;;;;1.62;91.33;101111.25;4993874;28;20029;-73
2023/12/04 01:22:54;;;;;;;3.92;1.98;;;;;;;1.46;91.56;101109.81;4992914;28;20035;-74
2023/12/04 01:25:19;;;;;;;8.57;2.92;;;;;;;1.51;91.12;101112.41;4974323;28;20030;-74
2023/12/04 01:27:45;;;;;;;5.53;3.45;;;;;;;1.51;90.56;101104.44;4982194;28;20034;-75
2023/12/04 01:30:11;;;;;;;7.75;2.92;;;;;;;1.46;91.44;101096.56;4992657;28;20042;-74
2023/12/04 01:32:36;;;;;;;4.13;2.50;;;;;;;1.51;90.98;101096.50;4990643;28;20057;-74
2023/12/04 01:35:02;;;;;;;3.40;2.42;;;;;;;1.49;90.50;101103.94;4991974;28;20446;-74
2023/12/04 01:37:28;;;;;;;9.35;3.05;;;;;;;1.55;90.26;101105.47;4994771;28;20092;-72
2023/12/04 01:39:53;;;;;;;3.78;2.25;;;;;;;1.50;90.42;101102.09;4960370;28;20034;-75
2023/12/04 01:42:19;;;;;;;5.22;2.80;;;;;;;1.32;90.91;101103.63;4994745;28;20054;-74
2023/12/04 01:44:44;;;;;;;7.75;2.88;;;;;;;1.49;90.47;101092.56;4955118;28;20069;-74
2023/12/04 01:47:11;;;;;;;4.50;2.65;;;;;;;1.40;90.12;101092.38;4992746;28;20489;-74
2023/12/04 01:49:36;;;;;;;4.63;4.00;;;;;;;1.54;90.40;101089.84;4990975;28;20038;-74
2023/12/04 01:52:02;;;;;;;10.23;2.90;;;;;;;1.51;89.38;101091.19;4988837;28;20092;-74
2023/12/04 01:54:28;;;;;;;6.53;3.17;;;;;;;1.27;90.54;101090.41;4986360;28;20030;-74
2023/12/04 01:56:54;;;;;;;2.47;2.00;;;;;;;1.40;89.92;101084.44;4986497;28;20038;-74
2023/12/04 01:59:21;;;;;;;11.10;3.53;;;;;;;1.37;89.98;101086.84;4987144;28;20653;-75
2023/12/04 02:01:47;;;;;;;2.83;2.60;;;;;;;1.31;90.25;101074.72;4971063;28;20068;-74
2023/12/04 02:04:13;;;;;;;10.75;3.65;;;;;;;1.20;90.53;101068.72;4990410;28;20031;-75
2023/12/04 02:06:40;;;;;;;6.07;3.17;;;;;;;1.13;90.68;101068.28;4988905;28;20057;-74
2023/12/04 02:09:06;;;;;;;6.63;3.83;;;;;;;1.22;90.68;101069.25;4987192;28;20485;-74
2023/12/04 02:11:32;;;;;;;6.80;3.47;;;;;;;1.30;90.53;101071.28;4988407;28;20042;-74
2023/12/04 02:13:58;;;;;;;10.77;2.88;;;;;;;1.27;90.33;101068.41;4971208;28;20026;-75
2023/12/04 02:16:29;;;;;;;9.00;3.03;;;;;;;1.32;89.92;101076.28;4971851;28;20617;-72
2023/12/04 02:18:55;;;;;;;3.55;2.55;;;;;;;1.19;90.13;101059.22;4971005;28;20504;-74
2023/12/04 02:21:24;;;;;;;3.65;3.28;;;;;;;1.20;90.69;101060.78;4971861;28;20050;-75
2023/12/04 02:23:52;;;;;;;6.00;2.75;;;;;;;1.31;88.75;101061.47;4970084;28;20093;-75
2023/12/04 02:26:22;;;;;;;7.13;2.88;;;;;;;1.22;89.95;101061.28;4988643;28;20046;-74
2023/12/04 02:28:59;;;;;;;4.78;3.08;;;;;;;1.27;89.79;101055.16;4970295;28;20042;-75
2023/12/04 02:31:30;;;;;;;5.47;2.13;;;;;;;1.30;90.03;101049.25;4971506;28;20473;-73
2023/12/04 02:33:57;;;;;;;4.03;2.55;;;;;;;1.38;89.39;101046.78;4988622;28;20053;-75
2023/12/04 02:36:24;;;;;;;3.03;2.20;;;;;;;1.38;88.63;101033.53;4992762;28;20030;-74
2023/12/04 02:38:50;;;;;;;3.25;2.95;;;;;;;1.37;88.76;101031.97;4990631;28;20034;-74
2023/12/04 02:41:17;;;;;;;5.85;3.13;;;;;;;1.39;88.72;101034.31;4991114;28;20057;-75
2023/12/04 02:43:43;;;;;;;5.50;2.53;;;;;;;1.51;87.37;101032.81;4976585;28;20073;-74
2023/12/04 02:46:08;;;;;;;2.78;1.90;;;;;;;1.38;87.85;101030.88;4991520;28;20497;-74
2023/12/04 02:48:34;;;;;;;4.90;2.17;;;;;;;1.32;88.07;101029.34;4992162;28;20038;-74
2023/12/04 02:50:59;;;;;;;2.38;2.17;;;;;;;1.22;88.48;101026.81;4990468;28;20045;-74
2023/12/04 02:53:25;;;;;;;5.18;2.85;;;;;;;1.05;89.84;101015.88;4992881;28;20038;-75
2023/12/04 02:55:50;;;;;;;3.85;2.42;;;;;;;1.22;88.66;101010.13;4990711;28;20048;-74
2023/12/04 02:58:15;;;;;;;5.53;3.05;;;;;;;0.98;89.25;101018.09;4971960;28;20080;-75
2023/12/04 03:00:41;;;;;;;3.20;2.90;;;;;;;1.18;89.25;101011.78;4990173;28;20038;-75
2023/12/04 03:03:06;;;;;;;7.50;2.55;;;;;;;1.30;87.48;101004.19;4992360;28;20031;-75
2023/12/04 03:05:32;;;;;;;3.35;2.30;;;;;;;1.26;87.89;101003.19;4987775;28;20035;-74
2023/12/04 03:07:57;;;;;;;3.15;2.53;;;;;;;1.18;87.50;100996.63;4968709;28;20034;-74
2023/12/04 03:10:22;;;;;;;2.72;2.03;;;;;;;1.16;87.40;100990.06;4985765;28;20036;-75
2023/12/04 03:12:48;;;;;;;2.40;1.75;;;;;;;1.18;88.14;100991.31;4986345;28;20042;-73
2023/12/04 03:15:14;;;;;;;4.47;2.42;;;;;;;1.30;87.90;100993.56;4970605;28;20520;-74
2023/12/04 03:17:39;;;;;;;6.03;2.67;;;;;;;1.22;87.75;100992.34;4986571;28;20038;-75
2023/12/04 03:20:08;;;;;;;3.95;2.10;;;;;;;1.30;86.91;100981.09;4970887;28;20825;-74
2023/12/04 03:22:35;;;;;;;4.93;3.28;;;;;;;1.19;87.24;100982.31;4988309;28;20038;-74
2023/12/04 03:25:01;;;;;;;2.10;1.90;;;;;;;1.25;87.60;100975.88;4987327;28;20081;-75
2023/12/04 03:27:26;;;;;;;4.55;2.90;;;;;;;1.35;87.24;100967.00;4985861;28;20505;-71
2023/12/04 03:29:54;;;;;;;4.72;2.55;;;;;;;1.30;86.81;100965.19;4986469;28;20061;-74
2023/12/04 03:32:19;;;;;;;1.50;1.40;;;;;;;1.27;87.28;100959.69;4987209;28;20038;-74
2023/12/04 03:34:45;;;;;;;2.83;2.35;;;;;;;1.22;87.18;100957.88;4969701;28;20046;-74
2023/12/04 03:37:10;;;;;;;3.78;3.38;;;;;;;1.22;86.87;100949.16;4973687;28;20039;-74
2023/12/04 03:39:36;;;;;;;4.13;2.92;;;;;;;1.24;86.45;100955.72;4987275;28;20077;-74
2023/12/04 03:42:01;;;;;;;1.95;1.85;;;;;;;1.22;87.18;100957.09;4990805;28;20161;-74
2023/12/04 03:44:27;;;;;;;5.95;2.65;;;;;;;1.24;86.97;100944.34;4973329;28;20040;-75
2023/12/04 03:46:53;;;;;;;6.20;2.78;;;;;;;1.18;86.58;100948.13;4991568;28;20027;-73
2023/12/04 03:49:18;;;;;;;2.75;1.98;;;;;;;1.21;86.59;100943.03;4992122;28;20034;-75
2023/12/04 03:51:44;;;;;;;4.60;2.80;;;;;;;1.07;86.07;100936.84;4976677;28;20030;-74
2023/12/04 03:54:09;;;;;;;1.25;1.13;;;;;;;1.03;86.18;100930.53;4988269;28;20038;-74
2023/12/04 03:56:37;;;;;;;4.55;2.70;;;;;;;1.10;85.88;100925.69;4977787;28;20617;-75
2023/12/04 03:59:02;;;;;;;2.63;1.50;;;;;;;1.10;85.35;100917.75;4992181;28;20068;-75
2023/12/04 04:01:28;;;;;;;8.60;3.45;;;;;;;1.01;85.31;100916.78;4990759;28;20038;-73
2023/12/04 04:03:54;;;;;;;3.30;2.70;;;;;;;0.89;85.93;100909.25;4994164;28;20038;-73
2023/12/04 04:06:22;;;;;;;5.40;3.17;;;;;;;0.81;86.90;100909.09;4994671;28;20027;-73
2023/12/04 04:08:48;;;;;;;5.03;2.40;;;;;;;0.84;87.14;100916.47;4979995;28;20034;-73
2023/12/04 04:11:13;;;;;;;2.70;2.50;;;;;;;1.06;85.85;100914.09;4979896;28;20038;-74
2023/12/04 04:13:39;;;;;;;5.15;2.85;;;;;;;0.90;85.40;100897.59;4979124;28;20034;-73
2023/12/04 04:16:05;;;;;;;6.88;2.67;;;;;;;0.82;86.40;100892.13;4993159;28;20037;-73
2023/12/04 04:18:31;;;;;;;7.53;3.00;;;;;;;0.81;85.64;100893.19;4980665;28;20029;-73
2023/12/04 04:20:56;;;;;;;1.02;1.02;;;;;;;0.79;86.55;100890.03;4974572;28;20532;-74
2023/12/04 04:23:22;;;;;;;2.90;2.10;;;;;;;0.89;86.37;100892.56;4995707;28;20026;-74
2023/12/04 04:25:47;;;;;;;2.58;2.33;;;;;;;0.61;86.77;100885.47;4992534;28;20105;-74
2023/12/04 04:28:13;;;;;;;3.17;2.53;;;;;;;0.73;86.98;100878.72;4995978;28;20039;-74
2023/12/04 04:30:39;;;;;;;6.40;1.73;;;;;;;0.74;87.38;100877.63;4975733;28;20034;-73
2023/12/04 04:33:05;;;;;;;1.77;1.67;;;;;;;0.81;86.42;100874.66;4990413;28;20030;-74
2023/12/04 04:35:30;;;;;;;2.88;2.00;;;;;;;0.91;86.18;100874.50;4993829;28;20508;-74
2023/12/04 04:37:59;;;;;;;3.60;2.35;;;;;;;0.80;86.71;100873.06;4976731;28;20034;-74
2023/12/04 04:40:24;;;;;;;3.08;2.45;;;;;;;0.83;86.79;100870.63;4994904;28;20025;-73
2023/12/04 04:42:49;;;;;;;8.02;3.35;;;;;;;0.82;86.97;100874.34;4992921;28;20497;-73
2023/12/04 04:45:15;;;;;;;3.05;2.35;;;;;;;0.79;87.61;100879.44;4979714;28;20117;-74
2023/12/04 04:47:40;;;;;;;1.58;1.48;;;;;;;0.89;87.23;100872.13;4994829;28;20528;-74
2023/12/04 04:50:06;;;;;;;4.82;3.75;;;;;;;1.04;87.22;100875.66;4958415;28;20051;-73
2023/12/04 04:52:32;;;;;;;1.27;1.17;;;;;;;1.05;86.46;100878.03;4992287;28;20053;-74
2023/12/04 04:54:57;;;;;;;4.55;2.40;;;;;;;1.18;85.93;100871.25;4994307;28;20062;-74
2023/12/04 04:57:22;;;;;;;3.50;1.95;;;;;;;1.15;86.31;100871.81;4961980;28;20049;-74
2023/12/04 04:59:51;;;;;;;1.92;1.40;;;;;;;1.10;86.10;100861.28;4995206;28;20084;-74
2023/12/04 05:02:16;;;;;;;1.77;1.67;;;;;;;1.24;86.44;100873.50;4992625;28;20113;-73
2023/12/04 05:04:41;;;;;;;6.05;2.55;;;;;;;1.41;85.67;100860.56;4991817;28;20121;-73
2023/12/04 05:07:07;;;;;;;3.45;2.05;;;;;;;1.34;85.70;100860.13;4988565;28;20497;-73
2023/12/04 05:09:35;;;;;;;7.63;1.55;;;;;;;1.36;85.32;100857.16;4988578;28;20042;-73
2023/12/04 05:12:02;;;;;;;3.97;2.67;;;;;;;1.24;86.29;100846.22;4988403;28;20038;-73
2023/12/04 05:14:28;;;;;;;4.20;1.40;;;;;;;1.41;86.04;100851.81;4988817;28;20089;-74
2023/12/04 05:16:53;;;;;;;3.63;2.45;;;;;;;1.30;85.96;100855.66;4969505;28;20023;-73
2023/12/04 05:19:19;;;;;;;8.75;2.47;;;;;;;1.38;85.68;100842.56;4972417;28;20022;-73
2023/12/04 05:21:47;;;;;;;6.10;3.05;;;;;;;1.47;84.28;100845.34;4974571;28;20531;-74
2023/12/04 05:24:12;;;;;;;4.57;2.85;;;;;;;1.24;84.48;100836.41;4992665;28;20031;-73
2023/12/04 05:26:38;;;;;;;6.15;3.38;;;;;;;1.23;85.12;100828.72;4958563;28;20030;-74
2023/12/04 05:29:03;;;;;;;1.83;1.33;;;;;;;1.18;85.38;100832.25;4974441;28;20026;-73
2023/12/04 05:31:29;;;;;;;3.28;2.22;;;;;;;1.29;84.48;100825.72;4992285;28;20497;-74
2023/12/04 05:33:54;;;;;;;4.10;1.88;;;;;;;1.22;84.63;100833.25;4993809;28;20493;-74
2023/12/04 05:36:19;;;;;;;2.65;1.83;;;;;;;1.02;85.91;100830.91;4994493;28;20371;-74
2023/12/04 05:38:45;;;;;;;3.65;2.58;;;;;;;1.05;85.12;100830.31;4980606;28;20042;-74
2023/12/04 05:41:10;;;;;;;2.00;1.80;;;;;;;1.02;86.19;100828.25;4960547;28;20030;-74
2023/12/04 05:43:36;;;;;;;3.05;1.40;;;;;;;1.12;85.11;100822.81;4973630;28;20068;-73
2023/12/04 05:46:01;;;;;;;5.63;2.38;;;;;;;1.08;85.33;100831.63;4984392;28;20034;-73
2023/12/04 05:48:27;;;;;;;3.05;2.15;;;;;;;1.20;85.18;100830.09;4968438;28;20437;-71
2023/12/04 05:50:52;;;;;;;2.22;2.13;;;;;;;1.27;84.72;100827.09;4970637;28;20038;-74
2023/12/04 05:53:18;;;;;;;4.10;2.75;;;;;;;1.24;83.84;100819.72;4990395;28;20052;-72
2023/12/04 05:55:46;;;;;;;4.93;3.10;;;;;;;1.14;84.81;100820.66;4989494;28;20109;-74
2023/12/04 05:58:11;;;;;;;3.53;2.08;;;;;;;0.96;85.68;100810.84;4992391;28;20065;-74
2023/12/04 06:00:37;;;;;;;5.18;3.35;;;;;;;1.04;85.52;100814.69;4989824;28;20070;-74
2023/12/04 06:03:02;;;;;;;3.97;2.72;;;;;;;1.11;85.19;100810.63;4988220;28;20041;-73
2023/12/04 06:05:28;;;;;;;11.77;2.65;;;;;;;1.22;84.64;100808.59;4989342;28;20069;-74
2023/12/04 06:07:57;;;;;;;9.25;2.25;;;;;;;1.05;85.09;100801.16;4989608;28;20072;-74
2023/12/04 06:10:23;;;;;;;2.60;2.22;;;;;;;1.15;85.10;100808.97;4985540;28;20089;-72
2023/12/04 06:12:49;;;;;;;3.08;2.85;;;;;;;1.10;85.82;100795.00;4968265;28;20457;-74
2023/12/04 06:15:14;;;;;;;7.95;3.85;;;;;;;1.09;85.93;100802.16;4987479;28;20091;-75
2023/12/04 06:17:39;;;;;;;3.20;2.15;;;;;;;1.08;86.04;100805.09;4980332;28;20041;-71
2023/12/04 06:20:06;;;;;;;6.90;2.55;;;;;;;1.03;85.62;100792.69;4981131;28;20045;-74
2023/12/04 06:22:32;;;;;;;2.72;2.53;;;;;;;1.04;86.48;100783.69;4984700;28;20041;-75
2023/12/04 06:24:57;;;;;;;6.78;3.08;;;;;;;1.20;85.91;100787.66;4983891;28;20042;-74
2023/12/04 06:27:23;;;;;;;4.97;3.13;;;;;;;1.15;86.11;100785.09;4981174;28;20034;-71
2023/12/04 06:29:50;;;;;;;3.83;2.45;;;;;;;1.09;86.07;100783.59;4973759;28;20038;-74
2023/12/04 06:32:16;;;;;;;6.00;2.42;;;;;;;1.22;86.78;100784.75;4991257;28;20038;-74
2023/12/04 06:34:41;;;;;;;5.15;3.17;;;;;;;1.27;86.26;100787.31;4983898;28;20056;-72
2023/12/04 06:37:11;;;;;;;4.20;3.30;;;;;;;1.28;86.00;100781.72;4985052;28;20034;-73
2023/12/04 06:39:38;;;;;;;3.03;1.75;;;;;;;1.26;86.15;100783.84;4966220;28;20089;-74
2023/12/04 06:42:08;;;;;;;4.70;2.42;;;;;;;1.25;86.56;100790.25;4952213;28;20456;-73
2023/12/04 06:44:34;;;;;;;4.28;3.13;;;;;;;1.14;87.79;100780.88;4983744;28;20026;-74
2023/12/04 06:47:04;;;;;;;2.65;2.15;;;;;;;1.26;87.55;100791.81;4969242;28;20771;-75
2023/12/04 06:49:31;;;;;;;5.95;3.20;;;;;;;1.16;87.30;100777.94;4985144;28;20052;-76
2023/12/04 06:52:00;;;;;;;4.22;3.75;;;;;;;1.14;88.66;100772.94;4994580;28;20030;-75
2023/12/04 06:54:26;;;;;;;4.20;2.30;;;;;;;1.10;88.45;100779.88;4988195;28;20030;-70
2023/12/04 06:56:52;;;;;;;11.80;3.28;;;;;;;1.22;87.55;100777.56;4990785;28;20042;-75
2023/12/04 06:59:18;;;;;;;4.47;3.17;;;;;;;1.23;87.23;100770.41;4972928;28;20084;-75
2023/12/04 07:01:44;;;;;;;4.25;2.85;;;;;;;1.24;88.48;100772.75;4975137;28;20034;-74
2023/12/04 07:04:09;;;;;;;5.00;2.28;;;;;;;1.11;88.06;100768.19;4990067;28;20031;-75
2023/12/04 07:06:39;;;;;;;3.97;2.83;;;;;;;1.21;89.09;100767.25;4985194;28;20449;-74
2023/12/04 07:09:07;;;;;;;2.35;2.17;;;;;;;1.12;89.72;100769.00;4973472;28;20105;-75
2023/12/04 07:11:33;;;;;;;3.53;2.03;;;;;;;1.20;89.69;100768.34;4988140;28;20041;-76
2023/12/04 07:35:31;;;;;;;6.88;3.15;;;;;;;1.24;93.46;100758.72;5028577;27;20229;-72
2023/12/04 07:37:57;;;;;;;4.43;3.58;;;;;;;1.37;92.20;100756.13;5014895;28;20121;-73
2023/12/04 07:40:22;;;;;;;4.85;2.40;;;;;;;1.47;90.61;100763.13;5077543;28;20029;-74
2023/12/04 07:42:48;;;;;;;3.25;2.95;;;;;;;1.43;90.91;100768.19;5101053;28;20498;-73
2023/12/04 07:45:15;;;;;;;5.35;2.40;;;;;;;1.41;91.16;100759.75;5079296;27;20113;-73
2023/12/04 07:47:47;;;;;;;6.30;3.35;;;;;;;1.62;90.18;100768.94;5096950;27;20033;-72
2023/12/04 07:50:13;;;;;;;3.05;2.53;;;;;;;1.61;89.40;100762.06;4997576;28;20044;-73
2023/12/04 07:52:38;;;;;;;1.85;1.75;;;;;;;1.59;89.43;100763.41;4925170;28;20047;-74
2023/12/04 07:55:04;;;;;;;5.22;2.38;;;;;;;1.56;90.11;100761.34;4783851;29;20111;-73
2023/12/04 07:57:30;;;;;;;2.67;2.45;;;;;;;1.60;89.72;100757.84;4743275;29;20050;-72
2023/12/04 08:01:15;;;;;;;2.33;1.58;;;;;;;1.53;90.25;100751.34;5086642;27;1306599;-74
2023/12/04 08:03:43;;;;;;;4.07;3.15;;;;;;;1.63;89.50;100753.78;5051112;28;20298;-74
2023/12/04 08:06:09;;;;;;;2.83;2.20;;;;;;;1.63;88.91;100749.28;5051532;28;20126;-74
2023/12/04 08:08:34;;;;;;;2.00;1.83;;;;;;;1.50;89.47;100747.41;5049577;28;20034;-73
2023/12/04 08:11:02;;;;;;;4.32;2.70;;;;;;;1.56;89.84;100748.88;5034075;28;20106;-73
2023/12/04 08:13:28;;;;;;;2.50;2.25;;;;;;;1.61;89.12;100745.34;5043266;28;20032;-74
2023/12/04 08:15:53;;;;;;;2.72;2.38;;;;;;;1.67;89.38;100750.28;5051035;28;20497;-74
2023/12/04 08:20:25;;;;;;;3.03;2.72;;;;;;;1.43;89.63;100746.97;5108875;27;20204;-73
2023/12/04 08:22:50;;;;;;;3.25;2.13;;;;;;;1.39;91.02;100730.09;5090641;28;20118;-75
2023/12/04 08:25:16;;;;;;;7.00;2.97;;;;;;;1.49;90.91;100734.44;5082552;28;20136;-73
2023/12/04 08:39:40;;;;;;;6.53;3.40;;;;;;;2.02;89.46;100735.53;5072810;27;20446;-73
2023/12/04 08:42:05;;;;;;;5.25;3.45;;;;;;;2.08;88.59;100736.22;5071197;28;20145;-75
2023/12/04 08:44:30;;;;;;;8.00;2.75;;;;;;;2.08;87.79;100749.50;5071240;28;20112;-76
2023/12/04 08:46:57;;;;;;;4.45;2.60;;;;;;;2.01;87.77;100738.50;5078265;28;20033;-76
2023/12/04 08:49:23;;;;;;;2.78;2.15;;;;;;;2.03;87.42;100742.44;5079535;28;20093;-75
2023/12/04 08:51:52;;;;;;;4.40;2.92;;;;;;;1.93;88.79;100739.97;5077825;28;20123;-75
2023/12/04 08:54:18;;;;;;;3.10;2.75;;;;;;;1.76;88.30;100729.94;5059544;28;20028;-76
2023/12/04 08:56:44;;;;;;;16.23;3.72;;;;;;;1.65;89.51;100733.06;5078809;28;20086;-76
2023/12/04 08:59:10;;;;;;;6.97;2.10;;;;;;;1.70;90.02;100748.91;5076900;28;20024;-74
2023/12/04 09:01:36;;;;;;;4.90;2.22;;;;;;;1.83;89.54;100742.81;5074476;28;20048;-74
2023/12/04 09:04:01;;;;;;;3.30;2.17;;;;;;;1.89;89.25;100740.84;5075296;28;20468;-75
2023/12/04 09:06:27;;;;;;;5.93;2.95;;;;;;;2.01;88.62;100744.59;5075737;28;20040;-75
2023/12/04 09:08:53;;;;;;;3.90;3.15;;;;;;;1.89;89.38;100736.34;5071181;28;20048;-75
2023/12/04 09:11:19;;;;;;;5.10;2.63;;;;;;;1.86;90.20;100738.81;5094205;28;20075;-75
2023/12/04 09:13:44;;;;;;;3.90;2.05;;;;;;;1.68;90.64;100735.16;5076989;28;20052;-75
2023/12/04 09:16:10;;;;;;;3.17;2.65;;;;;;;1.86;90.45;100736.16;5076180;28;20040;-75
2023/12/04 09:18:35;;;;;;;4.18;2.97;;;;;;;1.97;90.89;100732.19;5072840;28;20562;-75
2023/12/04 09:21:04;;;;;;;4.00;2.03;;;;;;;1.84;91.33;100737.22;5082396;28;20036;-75
2023/12/04 09:23:30;;;;;;;3.63;2.38;;;;;;;1.89;91.79;100732.88;5091548;28;20121;-75
2023/12/04 09:25:56;;;;;;;5.57;2.83;;;;;;;1.93;90.62;100736.53;5078536;28;20032;-74
2023/12/04 09:28:21;;;;;;;4.13;2.50;;;;;;;2.07;91.21;100734.66;5074380;28;20078;-75
2023/12/04 09:30:47;;;;;;;5.68;3.03;;;;;;;2.09;91.34;100730.63;5074428;28;20078;-75
2023/12/04 09:33:12;;;;;;;4.30;2.55;;;;;;;2.00;91.74;100732.41;5074413;28;20032;-75
2023/12/04 09:35:38;;;;;;;7.70;3.03;;;;;;;2.07;91.47;100726.69;5076722;28;20029;-75
2023/12/04 09:38:03;;;;;;;2.00;1.77;;;;;;;2.06;91.48;100730.41;5080295;28;20498;-75
2023/12/04 09:40:29;;;;;;;4.93;1.20;;;;;;;2.13;91.42;100736.16;5047646;28;20558;-75
2023/12/04 09:42:55;;;;;;;5.13;3.42;;;;;;;2.08;91.69;100723.75;5061371;28;20032;-74
2023/12/04 09:45:23;;;;;;;2.55;1.70;;;;;;;2.22;91.87;100735.16;5086034;28;20403;-75
2023/12/04 09:47:49;;;;;;;3.08;1.20;;;;;;;2.19;91.81;100738.38;5059605;28;20021;-75
2023/12/04 09:50:17;;;;;;;5.22;2.20;;;;;;;2.28;91.38;100730.50;5064648;28;20036;-73
2023/12/04 09:52:42;;;;;;;5.55;2.92;;;;;;;2.39;91.37;100739.84;5061531;28;20031;-75
2023/12/04 09:55:10;;;;;;;3.70;2.55;;;;;;;2.33;91.44;100722.44;5079388;28;20029;-76
2023/12/04 09:57:37;;;;;;;1.83;1.65;;;;;;;2.30;91.84;100723.84;5062301;28;20090;-75
2023/12/04 10:00:04;;;;;;;1.88;1.77;;;;;;;2.44;91.04;100724.56;5061074;28;20029;-76
2023/12/04 10:02:37;;;;;;;2.08;1.58;;;;;;;2.46;90.65;100710.97;5061837;28;20194;-74
2023/12/04 10:05:05;;;;;;;3.08;1.95;;;;;;;2.58;89.58;100716.56;5070057;28;20067;-74
2023/12/04 10:07:31;;;;;;;8.23;2.33;;;;;;;2.63;90.32;100709.25;5059042;28;20035;-74
2023/12/04 10:09:56;;;;;;;8.13;2.00;;;;;;;2.61;89.55;100705.34;5057366;28;20521;-74
2023/12/04 10:12:22;;;;;;;6.45;2.38;;;;;;;2.55;89.87;100706.53;5064826;28;20123;-74
2023/12/04 10:15:08;;;;;;;4.53;2.75;;;;;;;2.64;90.36;100696.75;5060727;28;20032;-74
2023/12/04 10:17:37;;;;;;;3.70;2.25;;;;;;;2.62;90.43;100690.97;5061044;28;20095;-75
2023/12/04 10:20:12;;;;;;;5.57;3.05;;;;;;;2.56;90.69;100676.22;5064438;28;20415;-75
2023/12/04 10:22:54;;;;;;;2.67;2.40;;;;;;;2.65;89.85;100680.50;5065907;28;20040;-75
2023/12/04 10:25:20;;;;;;;1.98;1.85;;;;;;;2.63;89.12;100677.38;5062104;28;20040;-74
2023/12/04 10:27:46;;;;;;;3.40;2.35;;;;;;;2.71;88.39;100670.53;5059517;28;20029;-76
2023/12/04 10:30:28;;;;;;;3.30;1.95;;;;;;;2.56;88.89;100652.31;5060881;28;20219;-75
2023/12/04 10:33:02;;;;;;;3.72;2.90;;;;;;;2.58;89.16;100656.22;5059746;28;20028;-75
2023/12/04 10:35:32;;;;;;;2.13;1.98;;;;;;;2.67;89.38;100653.66;5060834;28;20115;-75
2023/12/04 10:38:02;;;;;;;3.15;2.47;;;;;;;2.65;90.22;100653.16;5063502;28;20032;-76
2023/12/04 10:40:33;;;;;;;3.15;2.80;;;;;;;2.78;89.55;100649.66;5058541;28;20082;-75
2023/12/04 10:43:17;;;;;;;4.40;3.58;;;;;;;2.80;88.53;100647.47;5061855;28;20045;-75
2023/12/04 10:45:45;;;;;;;6.20;3.03;;;;;;;2.81;88.22;100650.94;5062279;28;20033;-75
2023/12/04 10:48:11;;;;;;;2.78;2.40;;;;;;;2.80;88.00;100650.13;5058106;28;20047;-75
2023/12/04 10:50:39;;;;;;;3.25;2.53;;;;;;;2.75;88.44;100640.41;5052167;28;20392;-75
2023/12/04 10:53:05;;;;;;;4.97;2.90;;;;;;;2.81;88.66;100638.41;5057882;28;20056;-74
2023/12/04 10:55:31;;;;;;;8.00;3.33;;;;;;;2.75;88.60;100642.28;5057180;28;20094;-76
2023/12/04 10:57:57;;;;;;;5.35;3.55;;;;;;;2.89;88.49;100645.66;5074455;28;20403;-75
2023/12/04 11:00:24;;;;;;;8.00;3.22;;;;;;;2.80;87.29;100644.03;5059542;28;20036;-74
2023/12/04 11:02:55;;;;;;;3.53;3.13;;;;;;;2.91;87.79;100635.50;5044707;28;20048;-75
2023/12/04 11:05:24;;;;;;;;;;;;;;;2.96;87.42;100637.25;5059617;28;20103;-75
2023/12/04 11:08:01;;;;;;;4.70;1.70;;;;;;;2.90;87.79;100631.28;5057103;28;20586;-75
2023/12/04 11:10:29;;;;;;;2.22;2.08;;;;;;;2.78;87.32;100623.06;5051833;28;20497;-75
2023/12/04 11:13:03;;;;;;;5.07;2.97;;;;;;;2.89;88.55;100627.03;5050390;28;20538;-74
2023/12/04 11:15:31;;;;;;;3.83;2.90;;;;;;;2.74;87.65;100622.09;5059392;28;20029;-75
2023/12/04 11:18:02;;;;;;;4.90;2.90;;;;;;;2.86;86.83;100622.34;5044989;28;20072;-74
2023/12/04 11:20:31;;;;;;;;;;;;;;;2.85;87.09;100619.97;5075843;28;20463;-75
2023/12/04 11:22:57;;;;;;;2.25;2.05;;;;;;;2.85;87.82;100622.63;5055138;28;20274;-74
2023/12/04 11:25:24;;;;;;;4.88;2.33;;;;;;;2.93;87.49;100613.91;5073627;28;20059;-75
2023/12/04 11:27:54;;;;;;;8.63;3.38;;;;;;;2.93;87.41;100609.41;5076394;28;20414;-75
2023/12/04 11:30:20;;;;;;;8.98;4.22;;;;;;;2.82;86.71;100610.75;5057819;28;20312;-76
2023/12/04 11:32:47;;;;;;;5.50;3.03;;;;;;;2.85;87.58;100604.81;5062846;28;20055;-75
2023/12/04 11:35:17;;;;;;;5.32;3.08;;;;;;;2.96;86.78;100590.16;5053873;28;20441;-74
2023/12/04 11:37:46;;;;;;;6.80;2.50;;;;;;;2.89;87.78;100603.13;5078784;28;20506;-73
2023/12/04 11:40:13;;;;;;;3.85;2.35;;;;;;;2.91;87.14;100595.63;5058007;28;20032;-76
2023/12/04 11:42:39;;;;;;;5.43;2.22;;;;;;;3.05;86.73;100598.97;5056241;28;20450;-75
2023/12/04 11:45:06;;;;;;;4.25;2.95;;;;;;;2.98;86.87;100597.84;5053784;28;20119;-76
2023/12/04 11:47:48;;;;;;;6.40;4.13;;;;;;;2.92;86.66;100588.44;5050583;28;20043;-76
2023/12/04 11:50:18;;;;;;;2.53;2.30;;;;;;;3.10;86.36;100590.06;5050902;28;20067;-76
2023/12/04 11:52:44;;;;;;;3.25;2.10;;;;;;;3.07;85.68;100588.81;5050370;28;20037;-73
2023/12/04 11:55:09;;;;;;;3.40;2.05;;;;;;;3.01;85.45;100595.38;5061153;28;20341;-76
2023/12/04 11:57:40;;;;;;;8.27;3.05;;;;;;;2.97;86.19;100578.44;5054548;28;20556;-76
2023/12/04 12:00:21;;;;;;;5.80;1.80;;;;;;;3.12;85.95;100578.03;5055563;28;20033;-76
2023/12/04 12:02:53;;;;;;;6.05;2.60;;;;;;;3.05;86.22;100571.59;5070775;28;20097;-76
2023/12/04 12:05:23;;;;;;;3.90;1.75;;;;;;;3.03;84.63;100563.94;5057051;28;20047;-75
2023/12/04 12:07:49;;;;;;;4.35;2.72;;;;;;;2.92;84.92;100556.53;5053694;28;20040;-75